Time;durP1;ratioP1;P1;durP2;ratioP2;P2;SDS_P1;SDS_P2;PMS_P1;PMS_P2;Temp;Humidity;BMP_temperature;BMP_pressure;BME280_temperature;BME280_humidity;BME280_pressure;Samples;Min_cycle;Max_cycle;Signal;HPM_P1;HPM_P2
2022/06/07 00:00:37;;;;;;;0.85;0.50;;;18.10;93.10;;;;;;5056288;28;20173;-76
2022/06/07 00:03:03;;;;;;;0.73;0.70;;;18.10;93.20;;;;;;5051400;28;20244;-79
2022/06/07 00:05:32;;;;;;;2.47;0.70;;;18.10;93.40;;;;;;5049459;28;20173;-78
2022/06/07 00:07:58;;;;;;;1.20;0.80;;;18.00;93.40;;;;;;5054613;28;20178;-79
2022/06/07 00:10:25;;;;;;;1.10;0.80;;;18.00;93.50;;;;;;5056044;28;20197;-76
2022/06/07 00:12:55;;;;;;;1.00;0.70;;;18.00;93.70;;;;;;5055987;28;20173;-79
2022/06/07 00:15:24;;;;;;;0.75;0.60;;;17.90;94.00;;;;;;5055088;28;20181;-81
2022/06/07 00:17:49;;;;;;;1.60;0.80;;;17.90;94.20;;;;;;5048243;28;20202;-78
2022/06/07 00:20:16;;;;;;;1.70;0.70;;;17.90;94.10;;;;;;5052335;28;20239;-76
2022/06/07 00:22:42;;;;;;;1.00;0.70;;;17.90;94.20;;;;;;5055107;28;20188;-78
2022/06/07 00:25:11;;;;;;;1.15;0.70;;;17.80;94.20;;;;;;5056370;28;20227;-80
2022/06/07 00:27:39;;;;;;;2.05;0.77;;;17.80;94.70;;;;;;5054015;28;20177;-78
2022/06/07 00:30:08;;;;;;;1.08;0.60;;;17.80;94.40;;;;;;5051240;28;20225;-77
2022/06/07 00:32:36;;;;;;;0.70;0.70;;;17.80;94.60;;;;;;5085636;28;20178;-78
2022/06/07 00:35:02;;;;;;;0.98;0.70;;;17.70;94.60;;;;;;5047070;28;20178;-74
2022/06/07 00:37:28;;;;;;;1.42;0.80;;;17.70;94.80;;;;;;5055046;28;20248;-77
2022/06/07 00:39:54;;;;;;;1.02;0.73;;;17.70;95.00;;;;;;5056415;28;20194;-78
2022/06/07 00:42:21;;;;;;;2.05;0.70;;;17.70;95.10;;;;;;5055047;28;20267;-79
2022/06/07 00:44:49;;;;;;;2.47;0.73;;;17.60;95.20;;;;;;5053027;28;20173;-77
2022/06/07 00:47:23;;;;;;;0.80;0.60;;;17.60;95.40;;;;;;5048290;28;20178;-80
2022/06/07 00:50:04;;;;;;;0.80;0.60;;;17.60;95.50;;;;;;5053141;28;20194;-79
2022/06/07 00:52:31;;;;;;;0.93;0.80;;;17.60;96.40;;;;;;5050790;28;20174;-77
2022/06/07 00:54:58;;;;;;;1.13;0.60;;;17.50;95.90;;;;;;5086558;28;20174;-78
2022/06/07 00:57:30;;;;;;;0.80;0.70;;;17.50;96.00;;;;;;5055796;28;20198;-77
2022/06/07 00:59:55;;;;;;;0.68;0.57;;;17.50;96.30;;;;;;5086590;28;20220;-76
2022/06/07 01:02:21;;;;;;;1.20;0.70;;;17.50;96.20;;;;;;5084239;28;20219;-77
2022/06/07 01:04:50;;;;;;;2.17;0.88;;;17.50;96.40;;;;;;5056005;28;20342;-76
2022/06/07 01:12:48;;;;;;;1.30;0.75;;;17.50;96.80;;;;;;5053039;28;20189;-77
2022/06/07 01:15:16;;;;;;;1.52;0.70;;;17.50;96.90;;;;;;5058485;28;20189;-77
2022/06/07 01:17:42;;;;;;;1.20;0.90;;;17.50;97.30;;;;;;5043539;28;20277;-77
2022/06/07 01:20:09;;;;;;;1.17;0.90;;;17.50;97.10;;;;;;5055120;28;20208;-78
2022/06/07 01:22:34;;;;;;;1.00;0.70;;;17.50;97.20;;;;;;5038026;28;20236;-79
2022/06/07 01:25:01;;;;;;;0.88;0.70;;;17.50;97.30;;;;;;5046808;28;20177;-79
2022/06/07 01:27:26;;;;;;;1.02;0.70;;;17.50;97.40;;;;;;5050501;28;20207;-77
2022/06/07 01:29:52;;;;;;;0.95;0.63;;;17.50;97.40;;;;;;5055307;28;20201;-79
2022/06/07 01:32:18;;;;;;;0.90;0.70;;;17.40;97.40;;;;;;5052206;28;20193;-77
2022/06/07 01:34:47;;;;;;;1.10;0.80;;;17.40;97.50;;;;;;5053447;28;20178;-76
2022/06/07 01:37:16;;;;;;;1.45;0.90;;;17.40;97.80;;;;;;5082836;28;20201;-78
2022/06/07 01:42:29;;;;;;;0.88;0.70;;;17.30;97.70;;;;;;5055605;28;20188;-77
2022/06/07 01:44:56;;;;;;;0.75;0.65;;;17.30;98.00;;;;;;5055400;28;20197;-77
2022/06/07 01:47:30;;;;;;;1.05;0.65;;;17.30;97.90;;;;;;5052884;28;20176;-76
2022/06/07 01:49:56;;;;;;;1.52;0.70;;;17.20;98.40;;;;;;5086390;28;20205;-77
2022/06/07 01:52:26;;;;;;;1.17;0.63;;;17.20;98.20;;;;;;5047288;28;20185;-77
2022/06/07 01:54:53;;;;;;;2.45;0.80;;;17.20;98.80;;;;;;5042156;28;20213;-77
2022/06/07 01:57:25;;;;;;;1.67;0.80;;;17.20;98.50;;;;;;5049238;28;20205;-77
2022/06/07 01:59:51;;;;;;;0.90;0.68;;;17.20;99.00;;;;;;5086778;28;20200;-77
2022/06/07 02:02:24;;;;;;;1.63;0.80;;;17.10;98.70;;;;;;5042086;28;20174;-78
2022/06/07 02:04:50;;;;;;;1.52;0.80;;;17.10;98.90;;;;;;5057859;28;20263;-77
2022/06/07 02:07:19;;;;;;;0.75;0.75;;;17.00;98.90;;;;;;5058751;28;20181;-77
2022/06/07 02:09:45;;;;;;;2.05;0.57;;;17.00;99.20;;;;;;5053950;28;20193;-79
2022/06/07 02:12:13;;;;;;;1.50;0.65;;;16.90;99.20;;;;;;5048005;28;20186;-79
2022/06/07 02:14:39;;;;;;;1.00;0.90;;;16.90;99.50;;;;;;5053888;28;20177;-78
2022/06/07 02:17:06;;;;;;;1.40;0.80;;;16.80;99.60;;;;;;5047110;28;20208;-78
2022/06/07 02:19:32;;;;;;;2.45;0.80;;;16.80;99.90;;;;;;5055408;28;20209;-78
2022/06/07 02:21:57;;;;;;;1.08;0.73;;;16.80;99.90;;;;;;5053443;28;20186;-77
2022/06/07 02:24:23;;;;;;;2.53;0.57;;;16.80;99.90;;;;;;5084515;28;20177;-77
2022/06/07 02:27:12;;;;;;;1.73;0.80;;;16.80;99.90;;;;;;5037528;28;20166;-78
2022/06/07 02:29:44;;;;;;;1.20;0.93;;;16.80;99.90;;;;;;5052120;28;20219;-78
2022/06/07 02:32:17;;;;;;;2.05;1.00;;;16.70;99.90;;;;;;5049250;28;20192;-78
2022/06/07 02:34:47;;;;;;;0.90;0.70;;;16.70;99.90;;;;;;5050182;28;20174;-78
2022/06/07 02:37:14;;;;;;;0.90;0.80;;;16.70;99.90;;;;;;5049102;28;20189;-78
2022/06/07 02:39:45;;;;;;;1.02;0.70;;;16.70;99.90;;;;;;5048916;28;20197;-79
2022/06/07 02:42:16;;;;;;;1.83;0.88;;;16.70;99.90;;;;;;5053330;28;20165;-78
2022/06/07 02:44:45;;;;;;;0.85;0.73;;;16.70;99.90;;;;;;5041679;28;20197;-77
2022/06/07 02:47:11;;;;;;;1.17;0.77;;;16.70;99.90;;;;;;5049681;28;20166;-78
2022/06/07 02:49:41;;;;;;;2.08;0.75;;;16.70;99.90;;;;;;5079954;28;20197;-77
2022/06/07 02:52:08;;;;;;;1.25;0.70;;;16.70;99.90;;;;;;5057218;28;20173;-78
2022/06/07 02:54:34;;;;;;;1.55;0.85;;;16.70;99.90;;;;;;5053056;28;20185;-78
2022/06/07 02:57:02;;;;;;;0.95;0.70;;;16.70;99.90;;;;;;5085590;28;20201;-79
2022/06/07 02:59:28;;;;;;;1.08;0.60;;;16.70;99.90;;;;;;5050535;28;20352;-77
2022/06/07 03:01:58;;;;;;;1.63;0.90;;;16.70;99.90;;;;;;5056607;28;20256;-79
2022/06/07 03:04:24;;;;;;;0.98;0.77;;;16.70;99.90;;;;;;5047739;28;20174;-77
2022/06/07 03:06:49;;;;;;;1.45;0.70;;;16.70;99.90;;;;;;5044481;28;20334;-78
2022/06/07 03:09:15;;;;;;;0.82;0.60;;;16.70;99.90;;;;;;5046199;28;20299;-76
2022/06/07 03:11:41;;;;;;;0.82;0.70;;;16.70;99.90;;;;;;5046587;28;20263;-76
2022/06/07 03:14:10;;;;;;;1.13;0.95;;;16.60;99.90;;;;;;5085607;28;20184;-79
2022/06/07 03:16:37;;;;;;;2.33;1.00;;;16.60;99.90;;;;;;5053324;28;20224;-80
2022/06/07 03:19:03;;;;;;;2.28;0.85;;;16.60;99.90;;;;;;5053335;28;20201;-79
2022/06/07 03:21:30;;;;;;;0.98;0.73;;;16.50;99.90;;;;;;5046409;28;20278;-79
2022/06/07 03:23:55;;;;;;;1.00;0.70;;;16.60;99.90;;;;;;5038394;28;20173;-78
2022/06/07 03:26:22;;;;;;;0.90;0.80;;;16.50;99.90;;;;;;5053012;28;20169;-77
2022/06/07 03:28:48;;;;;;;0.90;0.80;;;16.50;99.90;;;;;;5080112;28;20181;-77
2022/06/07 03:31:17;;;;;;;0.80;0.80;;;16.50;99.90;;;;;;5050480;28;20193;-79
2022/06/07 03:33:50;;;;;;;1.65;0.90;;;16.50;99.90;;;;;;5041577;28;20238;-79
2022/06/07 03:36:23;;;;;;;2.63;1.10;;;16.50;99.90;;;;;;5084440;28;20296;-79
2022/06/07 03:38:55;;;;;;;1.38;0.90;;;16.50;99.90;;;;;;5050735;28;20212;-78
2022/06/07 03:41:26;;;;;;;1.38;0.90;;;16.50;99.90;;;;;;5052914;28;20173;-77
2022/06/07 03:43:52;;;;;;;0.90;0.80;;;16.50;99.90;;;;;;5056708;28;20182;-77
2022/06/07 03:46:25;;;;;;;1.63;1.02;;;16.50;99.90;;;;;;5051083;28;20180;-79
2022/06/07 03:48:52;;;;;;;1.40;1.00;;;16.50;99.90;;;;;;5052005;28;20305;-69
2022/06/07 03:51:19;;;;;;;0.98;0.75;;;16.50;99.90;;;;;;5049526;28;20185;-69
2022/06/07 03:53:46;;;;;;;1.90;0.90;;;16.50;99.90;;;;;;5085779;28;20177;-71
2022/06/07 03:56:14;;;;;;;1.17;0.90;;;16.50;99.90;;;;;;5052010;28;20212;-69
2022/06/07 03:58:40;;;;;;;1.30;0.80;;;16.50;99.90;;;;;;5052808;28;20227;-69
2022/06/07 04:01:09;;;;;;;11.13;7.85;;;16.50;99.90;;;;;;5053430;28;20178;-69
2022/06/07 04:03:35;;;;;;;5.20;3.67;;;16.50;99.90;;;;;;5049770;28;20201;-70
2022/06/07 04:06:00;;;;;;;3.72;2.33;;;16.50;99.90;;;;;;5049812;28;20171;-70
2022/06/07 04:08:30;;;;;;;3.13;1.50;;;16.50;99.90;;;;;;5052871;28;20201;-69
2022/06/07 04:10:58;;;;;;;1.60;1.40;;;16.50;99.90;;;;;;5036369;28;20174;-69
2022/06/07 04:13:28;;;;;;;1.60;1.08;;;16.60;99.90;;;;;;5052920;28;20169;-70
2022/06/07 04:15:56;;;;;;;1.13;0.82;;;16.60;99.90;;;;;;5051401;28;20197;-69
2022/06/07 04:18:22;;;;;;;1.17;0.88;;;16.60;99.90;;;;;;5080627;28;20212;-69
2022/06/07 04:20:48;;;;;;;1.80;0.95;;;16.60;99.90;;;;;;5065785;28;20178;-70
2022/06/07 04:23:20;;;;;;;1.65;0.90;;;16.70;99.90;;;;;;5053778;28;20173;-71
2022/06/07 04:25:46;;;;;;;1.52;0.70;;;16.70;99.90;;;;;;5046213;28;20174;-70
2022/06/07 04:28:15;;;;;;;1.85;0.95;;;16.70;99.90;;;;;;5064326;28;20193;-70
2022/06/07 04:30:47;;;;;;;1.30;0.95;;;16.70;99.90;;;;;;5055365;28;20176;-70
2022/06/07 04:33:15;;;;;;;1.77;1.00;;;16.70;99.90;;;;;;5048510;28;20227;-70
2022/06/07 04:35:45;;;;;;;1.15;0.80;;;16.80;99.90;;;;;;5055957;28;20346;-70
2022/06/07 04:38:13;;;;;;;1.63;0.80;;;16.80;99.90;;;;;;5087835;28;20185;-69
2022/06/07 04:40:43;;;;;;;1.42;0.80;;;16.80;99.90;;;;;;5056525;28;20250;-70
2022/06/07 04:43:13;;;;;;;1.33;1.05;;;16.80;99.90;;;;;;5047556;28;20170;-69
2022/06/07 04:45:40;;;;;;;1.80;1.10;;;16.80;99.90;;;;;;5075200;28;20182;-70
2022/06/07 04:48:09;;;;;;;1.42;0.73;;;16.80;99.90;;;;;;5038622;28;20189;-69
2022/06/07 04:50:35;;;;;;;1.00;0.90;;;16.90;99.90;;;;;;5054293;28;20174;-68
2022/06/07 04:53:01;;;;;;;1.98;0.93;;;16.90;99.90;;;;;;5049214;28;20190;-70
2022/06/07 04:55:27;;;;;;;1.23;0.80;;;16.90;99.90;;;;;;5049706;28;20178;-70
2022/06/07 04:57:53;;;;;;;1.05;0.77;;;17.00;99.90;;;;;;5053760;28;20413;-70
2022/06/07 05:00:19;;;;;;;1.65;0.80;;;17.00;99.90;;;;;;5054654;28;20209;-70
2022/06/07 05:02:47;;;;;;;1.20;0.70;;;17.10;99.90;;;;;;5054471;28;20170;-71
2022/06/07 05:05:16;;;;;;;1.83;0.82;;;17.10;99.90;;;;;;5055784;28;20231;-71
2022/06/07 05:07:44;;;;;;;2.03;1.00;;;17.20;99.90;;;;;;5054772;28;20236;-70
2022/06/07 05:10:13;;;;;;;1.13;0.80;;;17.30;99.90;;;;;;5051160;28;20185;-71
2022/06/07 05:12:38;;;;;;;1.58;1.10;;;17.30;99.90;;;;;;5056637;28;20188;-70
2022/06/07 05:15:05;;;;;;;1.73;1.00;;;17.30;99.90;;;;;;5049884;28;20181;-71
2022/06/07 05:17:33;;;;;;;1.08;0.82;;;17.30;99.90;;;;;;5054167;28;20196;-70
2022/06/07 05:19:59;;;;;;;1.80;0.82;;;17.30;99.90;;;;;;5054814;28;20205;-71
2022/06/07 05:22:27;;;;;;;1.52;1.10;;;17.30;99.90;;;;;;5050718;28;20174;-70
2022/06/07 05:24:53;;;;;;;1.00;0.80;;;17.30;99.90;;;;;;5047847;28;20218;-70
2022/06/07 05:27:21;;;;;;;0.73;0.60;;;17.30;99.90;;;;;;5048626;28;20233;-70
2022/06/07 05:29:55;;;;;;;0.80;0.70;;;17.30;99.90;;;;;;5072417;28;20202;-70
2022/06/07 05:32:21;;;;;;;1.73;0.73;;;17.30;99.90;;;;;;5047790;28;20170;-70
2022/06/07 05:34:49;;;;;;;0.95;0.63;;;17.40;99.90;;;;;;5065479;28;20189;-70
2022/06/07 05:37:18;;;;;;;0.95;0.70;;;17.40;99.90;;;;;;5053231;28;20181;-70
2022/06/07 05:39:44;;;;;;;2.40;0.95;;;17.50;99.90;;;;;;5054538;28;20213;-70
2022/06/07 05:42:12;;;;;;;2.85;0.65;;;17.50;99.90;;;;;;5049471;28;20174;-70
2022/06/07 05:44:41;;;;;;;2.63;0.90;;;17.60;99.90;;;;;;5082419;28;20200;-70
2022/06/07 05:47:08;;;;;;;1.10;0.90;;;17.60;99.90;;;;;;5051545;28;20174;-69
2022/06/07 05:49:34;;;;;;;1.58;0.95;;;17.70;99.90;;;;;;5053023;28;20181;-70
2022/06/07 05:52:01;;;;;;;2.55;1.05;;;17.80;99.90;;;;;;5055915;28;20208;-69
2022/06/07 05:54:29;;;;;;;1.05;0.75;;;17.80;99.90;;;;;;5055290;28;20165;-70
2022/06/07 05:56:55;;;;;;;1.83;1.05;;;17.90;99.90;;;;;;5051762;28;20296;-70
2022/06/07 05:59:23;;;;;;;2.45;0.88;;;17.90;99.90;;;;;;5050999;28;20216;-70
2022/06/07 06:01:48;;;;;;;1.52;0.80;;;18.00;99.90;;;;;;5087733;28;20181;-70
2022/06/07 06:04:14;;;;;;;2.00;0.90;;;18.10;99.90;;;;;;5055452;28;20213;-70
2022/06/07 06:06:40;;;;;;;1.10;0.80;;;18.10;99.90;;;;;;5053980;28;20216;-70
2022/06/07 06:11:52;;;;;;;1.30;0.70;;;18.20;99.90;;;;;;5055722;28;20196;-70
2022/06/07 06:14:21;;;;;;;0.90;0.80;;;18.30;99.90;;;;;;5034670;28;20177;-70
2022/06/07 06:16:52;;;;;;;1.13;0.82;;;18.30;99.90;;;;;;5053635;28;20495;-69
2022/06/07 06:19:19;;;;;;;1.85;0.90;;;18.40;99.90;;;;;;5044619;28;20255;-70
2022/06/07 06:21:45;;;;;;;0.82;0.80;;;18.40;99.90;;;;;;5083133;28;20188;-69
2022/06/07 06:24:12;;;;;;;0.73;0.70;;;18.40;99.90;;;;;;5054031;28;20192;-70
2022/06/07 06:26:39;;;;;;;1.75;0.80;;;18.50;99.90;;;;;;5053473;28;20227;-70
2022/06/07 06:29:08;;;;;;;1.85;0.93;;;18.50;99.90;;;;;;5054201;28;20177;-69
2022/06/07 06:31:40;;;;;;;1.45;0.90;;;18.50;99.90;;;;;;5054177;28;20185;-69
2022/06/07 06:34:08;;;;;;;1.63;1.00;;;18.50;99.90;;;;;;5034364;28;20201;-70
2022/06/07 06:36:39;;;;;;;1.90;0.95;;;18.60;99.90;;;;;;5050427;28;20181;-69
2022/06/07 06:39:06;;;;;;;1.00;0.90;;;18.70;99.90;;;;;;5054913;28;20225;-70
2022/06/07 06:41:33;;;;;;;4.38;0.88;;;18.80;99.90;;;;;;5053622;28;20181;-69
2022/06/07 06:44:03;;;;;;;1.30;0.70;;;18.90;99.90;;;;;;5050166;28;20224;-70
2022/06/07 06:46:39;;;;;;;0.82;0.77;;;18.90;99.90;;;;;;5052240;28;20177;-70
2022/06/07 06:49:05;;;;;;;1.73;0.90;;;19.00;99.90;;;;;;5053867;28;20180;-69
2022/06/07 06:51:30;;;;;;;0.80;0.80;;;19.20;99.90;;;;;;5054383;28;20184;-70
2022/06/07 06:54:01;;;;;;;2.22;1.08;;;19.20;99.90;;;;;;5053465;28;20197;-70
2022/06/07 06:56:29;;;;;;;1.40;0.80;;;19.40;99.90;;;;;;5069949;28;20182;-70
2022/06/07 06:58:57;;;;;;;0.88;0.80;;;19.50;99.90;;;;;;5087128;28;20293;-70
2022/06/07 07:01:31;;;;;;;1.00;0.80;;;19.60;99.90;;;;;;5049314;28;20230;-69
2022/06/07 07:03:58;;;;;;;1.48;0.90;;;19.70;99.90;;;;;;5043712;28;20218;-69
2022/06/07 07:06:25;;;;;;;1.88;0.90;;;19.70;99.90;;;;;;5053549;28;20181;-70
2022/06/07 07:08:51;;;;;;;3.33;1.10;;;19.80;99.90;;;;;;5049918;28;20193;-69
2022/06/07 07:11:26;;;;;;;1.38;0.70;;;19.80;99.90;;;;;;5072088;28;20386;-71
2022/06/07 07:13:56;;;;;;;1.75;0.80;;;19.90;99.90;;;;;;5040718;28;20205;-69
2022/06/07 07:16:30;;;;;;;1.85;0.80;;;19.90;99.90;;;;;;5054188;28;20288;-72
2022/06/07 07:18:58;;;;;;;3.28;0.80;;;19.90;99.90;;;;;;5052080;28;20215;-69
2022/06/07 07:21:33;;;;;;;1.70;0.70;;;20.00;99.90;;;;;;5053385;28;20209;-70
2022/06/07 07:23:59;;;;;;;1.45;0.80;;;20.00;99.90;;;;;;5053080;28;20184;-70
2022/06/07 07:26:30;;;;;;;2.13;0.90;;;20.10;99.90;;;;;;5053201;28;20173;-71
2022/06/07 07:28:56;;;;;;;2.47;0.90;;;20.20;99.90;;;;;;5044607;28;20252;-70
2022/06/07 07:31:30;;;;;;;1.80;0.90;;;20.30;99.90;;;;;;5052927;28;20205;-71
2022/06/07 07:33:57;;;;;;;1.52;0.70;;;20.30;99.90;;;;;;5049925;28;20345;-70
2022/06/07 07:36:24;;;;;;;1.88;0.88;;;20.40;99.90;;;;;;5037768;28;20189;-70
2022/06/07 07:38:52;;;;;;;1.15;0.80;;;20.40;99.90;;;;;;5053423;28;20350;-70
2022/06/07 07:41:26;;;;;;;1.13;0.70;;;20.40;99.90;;;;;;5052491;28;20280;-70
2022/06/07 07:43:53;;;;;;;0.93;0.77;;;20.50;99.90;;;;;;5052265;28;20311;-72
2022/06/07 07:46:21;;;;;;;1.00;0.80;;;20.50;99.90;;;;;;5046733;28;20170;-69
2022/06/07 07:48:48;;;;;;;1.40;0.70;;;20.50;99.90;;;;;;5049811;28;20193;-69
2022/06/07 07:51:22;;;;;;;1.42;0.70;;;20.50;99.90;;;;;;5082309;28;20184;-70
2022/06/07 07:53:48;;;;;;;3.95;0.98;;;20.60;99.90;;;;;;5051150;28;20180;-73
2022/06/07 07:56:15;;;;;;;1.02;0.75;;;20.60;99.90;;;;;;5043662;28;20185;-71
2022/06/07 07:58:41;;;;;;;1.52;0.70;;;20.60;99.90;;;;;;5056381;28;20208;-71
2022/06/07 08:01:16;;;;;;;1.38;0.68;;;20.70;99.90;;;;;;5057218;28;20386;-71
2022/06/07 08:03:44;;;;;;;1.10;0.70;;;20.80;99.90;;;;;;5061669;28;20260;-71
2022/06/07 08:06:15;;;;;;;1.25;0.65;;;20.80;99.90;;;;;;5056461;28;20181;-70
2022/06/07 08:08:44;;;;;;;2.35;0.93;;;20.90;99.90;;;;;;5057096;28;20231;-71
2022/06/07 08:11:12;;;;;;;1.67;0.85;;;20.90;99.90;;;;;;5055700;28;20208;-70
2022/06/07 08:13:39;;;;;;;0.85;0.63;;;21.00;99.90;;;;;;5056742;28;20173;-70
2022/06/07 08:16:08;;;;;;;1.60;0.80;;;21.10;99.90;;;;;;5089681;28;20209;-70
2022/06/07 08:18:37;;;;;;;1.13;0.70;;;21.10;99.90;;;;;;5045359;28;20205;-70
2022/06/07 08:21:08;;;;;;;0.70;0.60;;;21.20;99.90;;;;;;5050922;28;20212;-70
2022/06/07 08:23:36;;;;;;;1.23;0.80;;;21.30;99.90;;;;;;5056315;28;20204;-69
2022/06/07 08:26:04;;;;;;;0.80;0.70;;;21.30;99.90;;;;;;5054665;28;20177;-69
2022/06/07 08:28:30;;;;;;;1.48;0.68;;;21.30;99.90;;;;;;5053345;28;20177;-69
2022/06/07 08:30:56;;;;;;;1.98;0.80;;;21.40;99.90;;;;;;5056380;28;20174;-69
2022/06/07 08:38:57;;;;;;;0.82;0.70;;;21.60;99.90;;;;;;5056876;28;20201;-69
2022/06/07 08:41:34;;;;;;;1.67;0.65;;;21.70;99.90;;;;;;5056956;28;20170;-69
2022/06/07 08:44:07;;;;;;;0.75;0.68;;;21.70;99.90;;;;;;5056227;28;20166;-70
2022/06/07 08:46:40;;;;;;;1.17;0.70;;;21.80;99.90;;;;;;5046551;28;20169;-70
2022/06/07 08:49:06;;;;;;;4.82;0.90;;;21.90;99.90;;;;;;5052501;28;20230;-70
2022/06/07 08:51:54;;;;;;;1.63;0.85;;;22.00;99.90;;;;;;5049232;28;20374;-69
2022/06/07 08:54:26;;;;;;;1.33;0.70;;;22.10;99.90;;;;;;5037593;28;20193;-70
2022/06/07 08:56:57;;;;;;;1.00;0.77;;;22.20;99.90;;;;;;5055588;28;20186;-71
2022/06/07 08:59:25;;;;;;;1.02;0.75;;;22.30;99.90;;;;;;5055602;28;20199;-70
2022/06/07 09:02:19;;;;;;;1.35;0.90;;;22.30;99.90;;;;;;5056235;28;20197;-71
2022/06/07 09:04:45;;;;;;;1.23;0.70;;;22.40;99.90;;;;;;5052062;28;20192;-71
2022/06/07 09:07:16;;;;;;;3.55;0.90;;;22.40;99.90;;;;;;5068735;28;20198;-70
2022/06/07 09:12:56;;;;;;;0.70;0.68;;;22.30;99.90;;;;;;5039417;28;20278;-70
2022/06/07 09:15:28;;;;;;;1.05;0.75;;;22.30;99.90;;;;;;5055648;28;20181;-70
2022/06/07 09:17:59;;;;;;;1.15;0.70;;;22.20;99.90;;;;;;5055092;28;20219;-71
2022/06/07 09:20:42;;;;;;;1.52;0.80;;;22.10;99.90;;;;;;5055316;28;20263;-70
2022/06/07 09:23:16;;;;;;;1.25;0.73;;;22.00;99.90;;;;;;5056427;28;20264;-71
2022/06/07 09:25:48;;;;;;;2.53;0.90;;;21.90;99.90;;;;;;5055050;28;20194;-70
2022/06/07 09:28:19;;;;;;;1.08;0.70;;;21.90;99.90;;;;;;5055562;28;20196;-70
2022/06/07 09:30:56;;;;;;;1.20;0.63;;;21.90;99.90;;;;;;5054651;28;20201;-71
2022/06/07 09:33:24;;;;;;;1.15;0.70;;;21.90;99.90;;;;;;5055602;28;20189;-72
2022/06/07 09:35:52;;;;;;;1.83;0.90;;;22.00;99.90;;;;;;5042141;28;20170;-71
2022/06/07 09:38:28;;;;;;;0.90;0.70;;;22.10;99.90;;;;;;5048628;28;20201;-71
2022/06/07 09:40:59;;;;;;;1.10;0.57;;;22.10;99.90;;;;;;5055338;28;20248;-71
2022/06/07 09:43:45;;;;;;;2.03;0.75;;;22.20;99.90;;;;;;5054891;28;20173;-71
2022/06/07 09:46:19;;;;;;;0.95;0.68;;;22.30;99.90;;;;;;5048475;28;20276;-71
2022/06/07 09:48:45;;;;;;;2.33;0.90;;;22.30;99.90;;;;;;5045436;28;20196;-71
2022/06/07 09:51:21;;;;;;;1.33;0.65;;;22.40;99.90;;;;;;5054371;28;20230;-71
2022/06/07 09:53:59;;;;;;;1.20;0.70;;;22.50;99.90;;;;;;5056115;28;20189;-71
2022/06/07 09:56:27;;;;;;;1.27;0.50;;;22.60;99.90;;;;;;5054975;28;20192;-71
2022/06/07 09:59:18;;;;;;;1.73;0.80;;;22.70;99.90;;;;;;5052346;28;20225;-71
2022/06/07 10:02:15;;;;;;;0.82;0.70;;;22.70;99.90;;;;;;5035168;28;20296;-71
2022/06/07 10:04:55;;;;;;;0.80;0.70;;;22.80;99.90;;;;;;5053608;28;20196;-70
2022/06/07 10:07:32;;;;;;;1.73;0.70;;;22.90;99.90;;;;;;5050714;28;20206;-70
2022/06/07 10:10:00;;;;;;;1.58;0.60;;;23.00;99.90;;;;;;5053384;28;20225;-69
2022/06/07 10:12:51;;;;;;;0.90;0.50;;;23.00;99.90;;;;;;5054830;28;20161;-69
2022/06/07 10:15:34;;;;;;;1.10;0.63;;;23.00;99.90;;;;;;5053101;28;20177;-69
2022/06/07 10:18:41;;;;;;;1.45;0.60;;;23.10;99.90;;;;;;5049845;28;20225;-70
2022/06/07 10:21:31;;;;;;;0.90;0.60;;;23.20;99.90;;;;;;5053507;28;20185;-69
2022/06/07 10:24:11;;;;;;;1.17;0.50;;;23.30;99.90;;;;;;5053981;28;20199;-70
2022/06/07 10:26:49;;;;;;;1.15;0.60;;;23.40;99.90;;;;;;5054392;28;20173;-70
2022/06/07 10:29:37;;;;;;;1.45;0.60;;;23.50;99.90;;;;;;5053755;28;20231;-70
2022/06/07 10:32:09;;;;;;;0.82;0.65;;;23.60;99.90;;;;;;5053694;28;20312;-70
2022/06/07 10:34:45;;;;;;;0.95;0.68;;;23.70;99.90;;;;;;5054313;28;20197;-70
2022/06/07 10:37:33;;;;;;;1.05;0.57;;;23.80;99.90;;;;;;5078502;28;20169;-70
2022/06/07 10:40:10;;;;;;;0.80;0.50;;;23.90;99.50;;;;;;5049918;28;20189;-70
2022/06/07 10:42:52;;;;;;;3.42;1.08;;;24.00;99.70;;;;;;5049180;28;20189;-70
2022/06/07 10:45:27;;;;;;;1.73;0.73;;;24.10;99.40;;;;;;5053447;28;20173;-69
2022/06/07 10:48:09;;;;;;;0.63;0.45;;;24.10;98.80;;;;;;5039751;28;20198;-69
2022/06/07 10:51:06;;;;;;;1.90;0.70;;;24.10;98.30;;;;;;5051885;28;20484;-70
2022/06/07 10:53:42;;;;;;;1.13;0.60;;;24.10;97.50;;;;;;5053093;28;20220;-70
2022/06/07 10:56:34;;;;;;;1.15;0.82;;;23.90;97.60;;;;;;5053458;28;20412;-69
2022/06/07 10:59:03;;;;;;;1.10;0.65;;;23.80;97.60;;;;;;5053851;28;20193;-69
2022/06/07 11:01:54;;;;;;;2.10;0.70;;;23.70;97.60;;;;;;5052720;28;20217;-69
2022/06/07 11:10:44;;;;;;;1.15;0.85;;;23.30;96.80;;;;;;5049733;28;20255;-68
2022/06/07 11:13:24;;;;;;;1.98;0.80;;;23.10;97.20;;;;;;5052722;28;20235;-69
2022/06/07 11:16:08;;;;;;;2.13;0.80;;;23.00;97.10;;;;;;5050946;28;20170;-70
2022/06/07 11:18:34;;;;;;;3.15;0.80;;;22.80;96.90;;;;;;5052336;28;20197;-70
2022/06/07 11:21:03;;;;;;;1.00;0.70;;;22.80;97.20;;;;;;5053009;28;20196;-70
2022/06/07 11:23:31;;;;;;;0.95;0.52;;;22.70;97.10;;;;;;5052668;28;20271;-71
2022/06/07 11:26:02;;;;;;;0.90;0.60;;;22.60;97.10;;;;;;5050007;28;20212;-70
2022/06/07 11:28:42;;;;;;;0.90;0.68;;;22.60;97.60;;;;;;5051194;28;20161;-70
2022/06/07 11:31:41;;;;;;;0.85;0.50;;;22.60;97.20;;;;;;5052205;28;20264;-71
2022/06/07 11:34:27;;;;;;;1.42;0.50;;;22.60;97.00;;;;;;5053274;28;20200;-70
2022/06/07 11:37:15;;;;;;;1.73;0.70;;;22.50;97.10;;;;;;5066620;28;20174;-71
2022/06/07 11:39:41;;;;;;;1.67;0.68;;;22.50;97.20;;;;;;5056214;28;20209;-71
2022/06/07 11:42:35;;;;;;;1.67;0.80;;;22.50;97.40;;;;;;5053036;28;20211;-71
2022/06/07 11:45:21;;;;;;;2.60;0.70;;;22.50;96.90;;;;;;5034284;28;20404;-71
2022/06/07 11:47:46;;;;;;;1.55;0.90;;;22.50;97.10;;;;;;5040486;28;20244;-71
2022/06/07 11:50:41;;;;;;;1.58;0.70;;;22.50;97.10;;;;;;5050638;28;20185;-71
2022/06/07 11:53:21;;;;;;;1.55;0.68;;;22.50;97.10;;;;;;5049858;28;20206;-70
2022/06/07 11:55:56;;;;;;;1.15;0.70;;;22.40;96.80;;;;;;5052512;28;20181;-71
2022/06/07 11:58:55;;;;;;;1.65;0.85;;;22.40;96.90;;;;;;5044641;28;20211;-77
2022/06/07 12:01:42;;;;;;;1.27;0.60;;;22.30;96.80;;;;;;5052469;28;20208;-77
2022/06/07 12:04:52;;;;;;;1.27;0.80;;;22.30;97.50;;;;;;5033510;28;20209;-76
2022/06/07 12:07:37;;;;;;;1.85;0.80;;;22.20;99.90;;;;;;5046732;28;20181;-77
2022/06/07 12:10:25;;;;;;;1.52;0.95;;;22.10;99.90;;;;;;5052027;28;20221;-78
2022/06/07 12:12:56;;;;;;;2.08;0.95;;;21.90;99.90;;;;;;5051860;28;20205;-77
2022/06/07 12:15:27;;;;;;;2.25;1.10;;;21.70;99.90;;;;;;5052531;28;20173;-77
2022/06/07 12:17:59;;;;;;;1.00;0.73;;;21.50;99.90;;;;;;5056915;28;20216;-78
2022/06/07 12:20:38;;;;;;;1.48;0.90;;;21.30;99.90;;;;;;5049463;28;20190;-76
2022/06/07 12:23:24;;;;;;;2.47;1.00;;;21.10;99.90;;;;;;5047589;28;20200;-79
2022/06/07 12:26:01;;;;;;;1.00;0.80;;;20.90;99.90;;;;;;5049869;28;20166;-79
2022/06/07 12:28:37;;;;;;;1.08;0.70;;;20.70;99.90;;;;;;5052172;28;20277;-79
2022/06/07 12:31:32;;;;;;;1.42;0.90;;;20.60;99.90;;;;;;5051640;28;20184;-79
2022/06/07 12:34:02;;;;;;;1.60;1.00;;;20.50;99.90;;;;;;5051296;28;20166;-81
2022/06/07 12:36:32;;;;;;;1.88;1.10;;;20.40;99.90;;;;;;5052328;28;20197;-79
2022/06/07 12:39:02;;;;;;;1.58;1.00;;;20.30;99.90;;;;;;5044909;28;20277;-78
2022/06/07 12:41:32;;;;;;;1.17;0.98;;;20.30;99.90;;;;;;5033132;28;20170;-80
2022/06/07 12:44:00;;;;;;;2.03;0.98;;;20.20;99.90;;;;;;5045122;28;20200;-80
2022/06/07 12:46:40;;;;;;;2.08;1.02;;;20.10;99.90;;;;;;5075027;28;20184;-79
2022/06/07 12:49:20;;;;;;;1.70;0.90;;;20.10;99.90;;;;;;5056376;28;20285;-80
2022/06/07 12:52:03;;;;;;;1.63;0.88;;;20.10;99.90;;;;;;5055441;28;20192;-81
2022/06/07 12:54:33;;;;;;;2.42;1.08;;;20.10;99.90;;;;;;5056629;28;20164;-80
2022/06/07 12:57:04;;;;;;;1.17;1.08;;;20.20;99.90;;;;;;5054545;28;20181;-80
2022/06/07 12:59:50;;;;;;;1.52;1.05;;;20.20;99.90;;;;;;5051168;28;20193;-80
2022/06/07 13:02:51;;;;;;;1.52;0.90;;;20.40;99.90;;;;;;5049169;28;20232;-80
2022/06/07 13:05:24;;;;;;;0.93;0.68;;;20.40;99.90;;;;;;5041878;28;20216;-75
2022/06/07 13:07:55;;;;;;;1.40;0.93;;;20.60;99.90;;;;;;5057659;28;20205;-78
2022/06/07 13:10:27;;;;;;;1.65;1.20;;;20.70;99.90;;;;;;5045442;28;20189;-77
2022/06/07 13:12:58;;;;;;;1.92;1.20;;;20.80;99.90;;;;;;5050309;28;20219;-77
2022/06/07 13:15:36;;;;;;;1.58;1.20;;;20.80;99.90;;;;;;5054111;28;20181;-77
2022/06/07 13:18:15;;;;;;;1.70;1.10;;;20.80;99.90;;;;;;5035797;28;20194;-78
2022/06/07 13:20:47;;;;;;;1.42;1.00;;;20.80;99.90;;;;;;5045279;28;20306;-77
2022/06/07 13:23:21;;;;;;;3.03;1.33;;;20.80;99.90;;;;;;5053006;28;20177;-76
2022/06/07 13:25:47;;;;;;;1.52;0.95;;;20.80;99.90;;;;;;5064013;28;20173;-78
2022/06/07 13:28:23;;;;;;;1.00;0.82;;;20.70;99.90;;;;;;5062934;28;20174;-78
2022/06/07 13:30:50;;;;;;;1.25;0.93;;;20.60;99.90;;;;;;5048310;28;20264;-79
2022/06/07 13:33:18;;;;;;;1.73;1.08;;;20.50;99.90;;;;;;5055378;28;20205;-79
2022/06/07 13:35:54;;;;;;;1.67;0.93;;;20.40;99.90;;;;;;5055187;28;20177;-78